Latest Weather Observations for Oakey

IDQ60901

Issued at 10:51 am EST Friday 28 July 2017 (issued every 10 minutes, with the page automatically refreshed every 10 minutes)

About weather observations | Map of Brisbane area stations | Latest observations for Brisbane area | Other Formats
Station Details ID: 041359 Name: OAKEY AERO Lat: -27.40 Lon: 151.74 Height: 405.69 m
Data from the previous 72 hours. | See also: Recent months at Oakey
Date/Time
EST
Temp
°C
App
Temp
°C
Dew
Point
°C
Rel
Hum
%
Delta-T
°C
Wind Press
QNH
hPa
Press
MSL
hPa
Rain since
9am
mm
Dir  Spd
km/h
Gust
km/h
Spd
kts
Gust
kts
28/10:30am 21.2 14.4 5.1 35 8.1 NW 30 37 16 20 1023.5 1023.6 0.0
28/10:00am 20.2 15.4 7.2 43 6.7 NW 22 32 12 17 1023.6 1023.7 0.0
28/09:30am 18.2 15.6 10.6 61 4.2 NNW 15 20 8 11 1023.7 1023.8 0.0
28/09:00am 15.4 15.1 10.2 71 2.8 NW 2 7 1 4 1023.9 1024.0 0.0
28/08:30am 13.6 13.7 11.5 87 1.1 ESE 2 6 1 3 1023.9 1024.0 0.0
28/08:00am 10.2 9.0 9.6 96 0.3 SE 6 7 3 4 1023.9 1024.0 0.0
28/07:30am 7.5 5.4 6.8 95 0.3 ESE 7 9 4 5 1023.7 1023.8 0.0
28/07:00am 3.8 0.6 3.1 95 0.3 SE 9 9 5 5 1023.5 1023.6 0.0
28/06:30am 4.0 1.2 3.4 96 0.3 SE 7 9 4 5 1023.4 1023.5 0.0
28/06:00am 4.1 1.0 3.5 96 0.3 ESE 9 9 5 5 1023.2 1023.4 0.0
28/05:30am 4.9 1.9 4.3 96 0.3 ESE 9 11 5 6 1023.1 1023.3 0.0
28/05:00am 4.9 1.9 4.3 96 0.3 ESE 9 11 5 6 1023.0 1023.2 0.0
28/04:30am 5.0 2.1 4.4 96 0.3 ESE 9 11 5 6 1023.0 1023.2 0.0
28/04:00am 4.4 1.6 3.1 91 0.5 ENE 7 9 4 5 1023.0 1023.2 0.0
28/03:30am 6.2 3.9 5.5 95 0.3 ENE 7 9 4 5 1023.2 1023.4 0.0
28/03:00am 6.6 3.0 5.1 90 0.7 E 13 15 7 8 1023.7 1023.8 0.0
28/02:30am 8.3 4.5 7.5 95 0.4 E 17 20 9 11 1023.6 1023.7 0.0
28/02:00am 5.4 1.6 4.1 91 0.6 ENE 13 15 7 8 1023.8 1023.9 0.0
28/01:30am 6.1 3.2 4.4 89 0.7 ESE 9 9 5 5 1024.1 1024.2 0.0
28/01:00am 7.9 5.0 6.4 90 0.7 SE 11 13 6 7 1024.3 1024.5 0.0
28/12:30am 7.6 4.6 5.9 89 0.8 SE 11 13 6 7 1024.4 1024.6 0.0
28/12:00am 8.5 5.5 5.8 83 1.2 ESE 11 13 6 7 1024.5 1024.7 0.0
 
Date/Time
EST
Temp
°C
App
Temp
°C
Dew
Point
°C
Rel
Hum
%
Delta-T
°C
Wind Press
QNH
hPa
Press
MSL
hPa
Rain since
9am
mm
Dir  Spd
km/h
Gust
km/h
Spd
kts
Gust
kts
27/11:30pm 8.6 5.8 5.2 79 1.6 E 9 11 5 6 1024.5 1024.7 0.0
27/11:00pm 9.0 5.9 5.7 80 1.5 ENE 11 13 6 7 1024.7 1024.9 0.0
27/10:30pm 9.5 6.0 5.5 76 1.9 E 13 17 7 9 1024.6 1024.8 0.0
27/10:00pm 10.2 6.3 6.9 80 1.6 E 17 20 9 11 1024.4 1024.6 0.0
27/09:30pm 10.0 6.1 5.2 72 2.2 ENE 15 19 8 10 1024.3 1024.5 0.0
27/09:00pm 9.8 6.0 1.5 56 3.5 ENE 11 15 6 8 1024.3 1024.5 0.0
27/08:30pm 9.1 5.5 0.6 55 3.5 SE 9 13 5 7 1024.3 1024.5 0.0
27/08:00pm 9.9 6.1 -0.6 48 4.2 ESE 9 11 5 6 1024.2 1024.4 0.0
27/07:30pm 11.4 7.4 -2.0 39 5.3 SE 9 11 5 6 1023.6 1023.7 0.0
27/07:00pm 11.1 6.2 -3.0 37 5.5 ESE 13 13 7 7 1023.4 1023.5 0.0
27/06:30pm 13.5 9.1 -2.8 32 6.5 S 11 15 6 8 1022.9 1023.1 0.0
27/06:00pm 14.7 9.9 -2.7 30 7.0 S 13 13 7 7 1022.4 1022.6 0.0
27/05:30pm 17.5 12.4 -2.2 26 8.3 SSW 15 19 8 10 1022.4 1022.6 0.0
27/05:00pm 19.6 14.2 -1.5 24 9.2 SW 17 20 9 11 1022.0 1022.1 0.0
27/04:30pm 21.7 17.8 -1.6 21 10.3 SSW 9 17 5 9 1021.9 1022.0 0.0
27/04:00pm 22.1 17.6 -0.6 22 10.3 SSW 13 20 7 11 1021.6 1021.7 0.0
27/03:30pm 22.3 18.4 -1.7 20 10.7 SSW 9 17 5 9 1021.5 1021.6 0.0
27/03:00pm 22.8 18.2 -1.3 20 10.8 SSW 13 24 7 13 1021.4 1021.5 0.0
27/02:30pm 22.5 16.2 -3.7 17 11.2 WSW 20 30 11 16 1021.5 1021.6 0.0
27/02:00pm 22.5 16.8 -3.7 17 11.2 SW 17 26 9 14 1021.5 1021.6 0.0
27/01:30pm 23.0 16.9 -4.1 16 11.6 SW 19 28 10 15 1021.7 1021.8 0.0
27/01:00pm 22.4 16.6 -4.6 16 11.3 SSW 17 28 9 15 1021.9 1022.0 0.0
27/12:30pm 22.0 16.0 -3.4 18 10.9 SSW 19 24 10 13 1022.2 1022.4 0.0
27/12:00pm 22.1 15.9 -3.3 18 10.9 S 20 30 11 16 1022.8 1023.0 0.0
27/11:30am 21.8 15.8 -2.8 19 10.7 S 19 26 10 14 1023.4 1023.5 0.0
27/11:00am 20.8 14.9 -2.3 21 10.0 S 19 26 10 14 1024.1 1024.2 0.0
27/10:30am 19.7 17.2 -0.9 25 9.1 SW 2 9 1 5 1024.3 1024.5 0.0
27/10:00am 17.5 15.6 0.6 32 7.5 CALM 0 6 0 3 1024.7 1024.9 0.0
27/09:30am 16.2 14.4 1.5 37 6.6 CALM 0 6 0 3 1024.8 1025.0 0.0
27/09:00am 13.3 11.7 2.2 47 4.9 CALM 0 0 0 0 1024.4 1024.6 0.0
27/08:30am 10.6 8.7 2.7 58 3.5 ENE 2 6 1 3 1024.3 1024.5 0.0
27/08:00am 7.1 4.3 3.0 75 1.8 ESE 7 7 4 4 1024.2 1024.4 0.0
27/07:30am 4.5 1.5 2.2 85 0.9 E 7 9 4 5 1024.1 1024.2 0.0
27/07:00am 1.7 -0.8 -0.7 84 0.9 ESE 2 7 1 4 1023.5 1023.6 0.0
27/06:30am 1.7 -0.4 -0.7 84 0.9 CALM 0 6 0 3 1023.1 1023.3 0.0
27/06:00am 1.7 -2.4 -0.4 86 0.8 NE 11 13 6 7 1022.8 1023.0 0.0
27/05:30am 2.2 -1.9 -0.2 84 0.9 NNE 11 15 6 8 1022.2 1022.4 0.0
27/05:00am 3.7 -1.4 0.6 80 1.2 ENE 17 20 9 11 1022.1 1022.3 0.0
27/04:30am 2.8 -2.3 0.7 86 0.8 WSW 17 19 9 10 1021.6 1021.7 0.0
27/04:00am 2.3 -1.1 -0.4 82 1.0 S 7 9 4 5 1022.1 1022.3 0.0
27/03:30am 2.1 -1.1 -0.6 82 1.0 SSE 6 11 3 6 1022.3 1022.5 0.0
27/03:00am 2.0 -0.8 -0.4 84 0.9 ESE 4 7 2 4 1022.5 1022.7 0.0
27/02:30am 2.4 -1.2 0.3 86 0.8 SE 9 11 5 6 1022.5 1022.7 0.0
27/02:00am 2.6 -0.7 0.2 84 0.9 NE 7 11 4 6 1022.5 1022.7 0.0
27/01:30am 2.9 -0.7 0.3 83 1.0 ESE 9 13 5 7 1022.6 1022.8 0.0
27/01:00am 3.0 -0.7 0.2 82 1.1 SE 9 13 5 7 1022.7 1022.9 0.0
27/12:30am 3.5 0.3 0.6 81 1.1 ESE 7 9 4 5 1022.3 1022.5 0.0
27/12:00am 4.5 0.6 1.2 79 1.3 ESE 11 13 6 7 1022.3 1022.5 0.0
 
Date/Time
EST
Temp
°C
App
Temp
°C
Dew
Point
°C
Rel
Hum
%
Delta-T
°C
Wind Press
QNH
hPa
Press
MSL
hPa
Rain since
9am
mm
Dir  Spd
km/h
Gust
km/h
Spd
kts
Gust
kts
26/11:30pm 4.8 0.8 0.2 72 1.8 ESE 11 13 6 7 1022.3 1022.5 0.0
26/11:00pm 5.6 1.3 1.0 72 1.8 ESE 13 15 7 8 1022.3 1022.5 0.0
26/10:30pm 5.5 2.3 0.7 71 1.9 ESE 7 9 4 5 1022.1 1022.3 0.0
26/10:00pm 5.5 1.9 0.7 71 1.9 NE 9 13 5 7 1021.9 1022.0 0.0
26/09:30pm 5.9 1.8 -0.2 65 2.4 E 11 13 6 7 1021.9 1022.0 0.0
26/09:00pm 7.7 4.4 0.0 58 3.1 ENE 7 11 4 6 1022.0 1022.1 0.0
26/08:30pm 7.5 3.9 0.5 61 2.8 NNE 9 13 5 7 1021.9 1022.0 0.0
26/08:00pm 9.3 6.0 2.4 62 3.0 NNE 9 11 5 6 1021.8 1021.9 0.0
26/07:30pm 9.0 6.1 1.4 59 3.2 N 6 11 3 6 1021.9 1022.0 0.0
26/07:00pm 12.9 11.5 3.3 52 4.4 CALM 0 0 0 0 1021.9 1022.0 0.0
26/06:30pm 13.9 10.6 -0.2 38 6.0 SW 7 9 4 5 1021.7 1021.8 0.0
26/06:00pm 17.5 13.5 0.6 32 7.5 SW 11 13 6 7 1021.6 1021.7 0.0
26/05:30pm 16.9 12.1 0.5 33 7.3 SW 15 17 8 9 1021.3 1021.4 0.0
26/05:00pm 20.1 15.3 0.5 27 8.9 SW 15 20 8 11 1021.1 1021.2 0.0
26/04:30pm 21.8 16.1 0.4 24 9.9 SW 20 30 11 16 1020.9 1021.0 0.0
26/04:00pm 22.4 16.7 0.3 23 10.2 SW 20 24 11 13 1020.9 1021.0 0.0
26/03:30pm 22.9 17.2 0.7 23 10.4 SW 20 26 11 14 1020.6 1020.8 0.0
26/03:00pm 22.6 16.8 -0.2 22 10.4 SW 20 24 11 13 1020.8 1020.9 0.0
26/02:30pm 22.7 16.5 -0.1 22 10.5 SSW 22 28 12 15 1020.9 1021.0 0.0
26/02:00pm 22.6 16.4 -0.2 22 10.4 SW 22 32 12 17 1021.2 1021.3 0.0
26/01:30pm 22.3 16.5 0.2 23 10.2 SSW 20 30 11 16 1021.4 1021.5 0.0
26/01:00pm 21.3 16.5 0.5 25 9.6 WSW 15 26 8 14 1021.7 1021.8 0.0
26/12:30pm 21.3 16.5 0.5 25 9.6 SW 15 22 8 12 1022.2 1022.4 0.0
26/12:00pm 20.3 16.4 1.2 28 8.8 WSW 11 15 6 8 1022.7 1022.9 0.0
26/11:30am 19.5 15.7 1.5 30 8.3 W 11 17 6 9 1023.5 1023.6 0.0
26/11:00am 18.4 15.0 1.9 33 7.6 SW 9 13 5 7 1024.0 1024.1 0.0
26/10:30am 16.9 13.0 1.4 35 7.0 SW 11 15 6 8 1024.3 1024.5 0.0
26/10:00am 15.1 12.1 0.9 38 6.2 SSW 6 9 3 5 1024.5 1024.7 0.0
26/09:30am 13.1 11.1 0.2 41 5.5 CALM 0 0 0 0 1024.8 1025.0 0.0
26/09:00am 10.5 8.7 1.3 53 3.9 CALM 0 0 0 0 1024.7 1024.9 0.0
26/08:30am 8.3 6.6 1.7 63 2.8 CALM 0 6 0 3 1024.6 1024.8 0.0
26/08:00am 5.0 2.0 0.9 75 1.6 NE 6 6 3 3 1024.6 1024.8 0.0
26/07:30am 2.1 -1.1 -0.2 85 0.9 ENE 6 7 3 4 1024.2 1024.4 0.0
26/07:00am 0.1 -3.8 -1.5 89 0.6 SE 9 11 5 6 1024.1 1024.2 0.0
26/06:30am -0.7 -4.3 -2.4 88 0.6 SE 7 9 4 5 1024.0 1024.1 0.0
26/06:00am -0.2 -3.8 -2.3 86 0.7 ESE 7 9 4 5 1023.7 1023.8 0.0
26/05:30am -0.1 -3.5 -2.0 87 0.7 E 6 7 3 4 1023.5 1023.6 0.0
26/05:00am -0.4 -4.0 -2.4 86 0.7 E 7 9 4 5 1023.2 1023.4 0.0
26/04:30am 0.3 -3.3 -1.9 85 0.8 ESE 7 9 4 5 1023.0 1023.2 0.0
26/04:00am 0.9 -3.0 -1.2 86 0.8 SE 9 11 5 6 1023.0 1023.2 0.0
26/03:30am -0.1 -3.8 -2.6 83 0.9 E 7 9 4 5 1023.0 1023.2 0.0
26/03:00am 0.3 -3.7 -1.9 85 0.8 E 9 9 5 5 1023.2 1023.4 0.0
26/02:30am 0.7 -2.9 -2.0 82 1.0 E 7 7 4 4 1023.5 1023.6 0.0
26/02:00am 0.9 -2.7 -1.8 82 1.0 ESE 7 9 4 5 1023.5 1023.6 0.0
26/01:30am 0.8 -3.2 -2.2 80 1.1 E 9 9 5 5 1023.4 1023.5 0.0
26/01:00am 1.3 -2.6 -1.4 82 1.0 E 9 11 5 6 1023.6 1023.7 0.0
26/12:30am 1.5 -2.4 -1.6 80 1.1 E 9 11 5 6 1023.6 1023.7 0.0
26/12:00am 2.7 -0.7 -0.9 77 1.3 E 7 11 4 6 1023.7 1023.8 0.0
 
Date/Time
EST
Temp
°C
App
Temp
°C
Dew
Point
°C
Rel
Hum
%
Delta-T
°C
Wind Press
QNH
hPa
Press
MSL
hPa
Rain since
9am
mm
Dir  Spd
km/h
Gust
km/h
Spd
kts
Gust
kts
25/11:30pm 2.7 -0.9 -1.8 72 1.6 ENE 7 9 4 5 1023.8 1023.9 0.0
25/11:00pm 3.4 -0.5 -1.5 70 1.8 E 9 11 5 6 1023.8 1023.9 0.0
25/10:30pm 3.3 -0.6 -1.8 69 1.9 ESE 9 9 5 5 1023.8 1023.9 0.0
25/10:00pm 5.6 2.2 -0.9 63 2.5 ESE 7 13 4 7 1023.7 1023.8 0.0
25/09:30pm 4.8 1.2 0.6 74 1.7 NNE 9 13 5 7 1023.7 1023.8 0.0
25/09:00pm 5.9 1.6 1.1 71 1.9 NE 13 17 7 9 1023.5 1023.6 0.0
25/08:30pm 5.0 1.6 -1.9 61 2.6 NNE 6 9 3 5 1023.2 1023.4 0.0
25/08:00pm 9.1 5.6 -1.6 47 4.2 SSE 7 11 4 6 1023.1 1023.3 0.0
25/07:30pm 8.3 4.4 -1.8 49 3.9 SE 9 13 5 7 1023.1 1023.3 0.0
25/07:00pm 9.6 6.0 -2.0 44 4.5 SSE 7 9 4 5 1022.8 1023.0 0.0
25/06:30pm 11.9 8.0 -1.6 39 5.5 S 9 11 5 6 1022.6 1022.8 0.0
25/06:00pm 14.5 10.6 -1.6 33 6.7 SSW 9 9 5 5 1022.4 1022.6 0.0
25/05:30pm 16.0 11.7 -1.5 30 7.4 SSW 11 13 6 7 1022.1 1022.3 0.0
25/05:00pm 17.4 12.8 -0.8 29 7.9 SSW 13 17 7 9 1021.9 1022.0 0.0
25/04:30pm 19.7 14.3 -1.4 24 9.2 SW 17 24 9 13 1021.7 1021.8 0.0
25/04:00pm 20.4 14.3 -2.6 21 9.9 SW 20 24 11 13 1021.6 1021.7 0.0
25/03:30pm 20.7 14.8 -1.1 23 9.7 SW 20 28 11 15 1021.6 1021.7 0.0
25/03:00pm 20.7 14.7 -1.8 22 9.8 SW 20 30 11 16 1021.6 1021.7 0.0
25/02:30pm 20.7 15.0 -1.1 23 9.7 SW 19 30 10 16 1021.8 1021.9 0.0
25/02:00pm 20.5 15.3 -0.2 25 9.3 SW 17 32 9 17 1022.1 1022.3 0.0
25/01:30pm 20.4 14.2 -0.3 25 9.3 SW 22 32 12 17 1022.3 1022.5 0.0
25/01:00pm 20.1 15.0 -1.7 23 9.5 WSW 15 22 8 12 1022.5 1022.7 0.0
25/12:30pm 19.8 13.9 -0.8 25 9.1 SW 20 32 11 17 1023.1 1023.3 0.0
25/12:00pm 19.6 13.9 -0.4 26 8.9 WSW 19 24 10 13 1023.7 1023.8 0.0
25/11:30am 18.7 12.6 0.3 29 8.3 WSW 22 30 12 16 1024.3 1024.5 0.0
25/11:00am 17.9 13.8 0.1 30 7.9 SSW 11 19 6 10 1024.8 1025.0 0.0

Latest Capital City Observations: Canberra | Sydney | Melbourne | Brisbane | Adelaide | Perth | Hobart | Darwin

Other Formats:

Comma delimited format used in spreadsheet applications
http://www.bom.gov.au/fwo/IDQ60901/IDQ60901.94552.axf

JavaScript Object Notation format (JSON) in row-major order
http://www.bom.gov.au/fwo/IDQ60901/IDQ60901.94552.json